createdAt,value
2018-07-15T00:00:30.163Z,66.59
2018-07-15T00:02:06.045Z,66.58
2018-07-15T00:03:41.663Z,66.21
2018-07-15T00:05:17.251Z,66.48
2018-07-15T00:06:53.232Z,66.28
2018-07-15T00:08:29.335Z,66.66
2018-07-15T00:10:04.975Z,66.93
2018-07-15T00:11:40.615Z,66.74
2018-07-15T00:13:16.192Z,67.21
2018-07-15T00:14:51.763Z,67.18
2018-07-15T00:16:27.580Z,67.27
2018-07-15T00:18:03.275Z,66.96
2018-07-15T00:19:38.928Z,67.31
2018-07-15T00:21:14.997Z,67.41
2018-07-15T00:22:50.579Z,67.53
2018-07-15T00:24:26.187Z,67.54
2018-07-15T00:26:01.893Z,67.51
2018-07-15T00:27:37.586Z,67.80
2018-07-15T00:29:13.169Z,67.65
2018-07-15T00:30:48.769Z,67.98
2018-07-15T00:32:24.454Z,67.97
2018-07-15T00:34:00.144Z,68.10
2018-07-15T00:35:35.752Z,68.00
2018-07-15T00:37:11.369Z,68.26
2018-07-15T00:38:47.086Z,68.44
2018-07-15T00:40:22.690Z,68.78
2018-07-15T00:41:58.323Z,68.59
2018-07-15T00:43:34.035Z,68.86
2018-07-15T00:45:09.627Z,68.37
2018-07-15T00:46:45.195Z,68.91
2018-07-15T00:48:20.998Z,68.37
2018-07-15T00:49:56.966Z,68.68
2018-07-15T00:51:32.634Z,68.54
2018-07-15T00:53:08.634Z,68.15
2018-07-15T00:54:44.283Z,68.39
2018-07-15T00:56:19.991Z,68.49
2018-07-15T00:57:55.780Z,68.48
2018-07-15T00:59:31.904Z,68.48
2018-07-15T01:01:07.477Z,68.58
2018-07-15T01:02:43.112Z,68.87
2018-07-15T01:04:18.758Z,68.68
2018-07-15T01:05:54.638Z,68.69
2018-07-15T01:07:30.383Z,68.97
2018-07-15T01:09:08.059Z,69.25
2018-07-15T01:10:43.746Z,69.14
2018-07-15T01:12:19.324Z,69.54
2018-07-15T01:13:55.128Z,69.06
2018-07-15T01:15:30.720Z,69.11
2018-07-15T01:17:06.335Z,69.09
2018-07-15T01:18:41.921Z,68.80
2018-07-15T01:20:17.639Z,68.55
2018-07-15T01:21:53.287Z,68.80
2018-07-15T01:23:28.991Z,68.86
2018-07-15T01:25:05.136Z,68.77
2018-07-15T01:26:40.706Z,68.64
2018-07-15T01:28:16.583Z,68.97
2018-07-15T01:29:52.379Z,69.31
2018-07-15T01:31:27.968Z,68.92
2018-07-15T01:33:03.647Z,69.10
2018-07-15T01:34:39.251Z,68.91
2018-07-15T01:36:15.141Z,68.89
2018-07-15T01:37:51.339Z,68.74
2018-07-15T01:39:26.938Z,68.79
2018-07-15T01:41:02.502Z,68.47
2018-07-15T01:42:38.467Z,68.52
2018-07-15T01:44:14.051Z,68.81
2018-07-15T01:45:49.642Z,69.12
2018-07-15T01:47:25.450Z,69.15
2018-07-15T01:49:01.091Z,69.11
2018-07-15T01:50:36.654Z,69.26
2018-07-15T01:52:12.298Z,69.44
2018-07-15T01:53:48.041Z,69.75
2018-07-15T01:55:23.804Z,69.89
2018-07-15T01:56:59.471Z,69.82
2018-07-15T01:58:35.375Z,70.14
2018-07-15T02:00:10.951Z,69.93
2018-07-15T02:01:46.578Z,70.04
2018-07-15T02:03:22.235Z,70.09
2018-07-15T02:04:57.811Z,70.34
2018-07-15T02:06:33.403Z,70.46
2018-07-15T02:08:09.002Z,70.78
2018-07-15T02:09:44.855Z,70.93
2018-07-15T02:11:20.658Z,70.85
2018-07-15T02:12:56.223Z,70.92
2018-07-15T02:14:31.915Z,71.04
2018-07-15T02:16:07.811Z,71.18
2018-07-15T02:17:43.480Z,71.45
2018-07-15T02:19:19.039Z,71.20
2018-07-15T02:20:54.785Z,71.35
2018-07-15T02:22:30.391Z,71.37
2018-07-15T02:24:06.090Z,71.32
2018-07-15T02:25:41.915Z,71.43
2018-07-15T02:27:17.667Z,71.11
2018-07-15T02:28:53.259Z,71.33
2018-07-15T02:30:28.843Z,71.28
2018-07-15T02:32:04.427Z,71.50
2018-07-15T02:33:40.053Z,71.78
2018-07-15T02:35:15.670Z,71.47
2018-07-15T02:36:51.348Z,71.83
2018-07-15T02:38:26.948Z,71.73
2018-07-15T02:40:02.581Z,71.58
2018-07-15T02:41:38.395Z,71.84
2018-07-15T02:43:14.089Z,71.88
2018-07-15T02:44:49.710Z,71.92
2018-07-15T02:46:25.387Z,71.87
2018-07-15T02:48:00.988Z,71.77
2018-07-15T02:49:36.558Z,71.87
2018-07-15T02:51:12.191Z,72.04
2018-07-15T02:52:47.847Z,71.99
2018-07-15T02:54:23.402Z,72.12
2018-07-15T02:55:58.975Z,72.15
2018-07-15T02:57:34.703Z,72.15
2018-07-15T02:59:10.367Z,72.27
2018-07-15T03:00:46.181Z,72.36
2018-07-15T03:02:21.870Z,72.55
2018-07-15T03:03:57.439Z,72.31
2018-07-15T03:05:33.019Z,72.31
2018-07-15T03:07:09.015Z,72.52
2018-07-15T03:08:44.651Z,72.51
2018-07-15T03:10:20.249Z,72.57
2018-07-15T03:11:55.867Z,72.66
2018-07-15T03:13:31.445Z,72.81
2018-07-15T03:15:07.197Z,72.66
2018-07-15T03:16:43.001Z,72.78
2018-07-15T03:18:18.727Z,72.94
2018-07-15T03:19:54.313Z,72.86
2018-07-15T03:21:29.941Z,72.99
2018-07-15T03:23:05.619Z,73.06
2018-07-15T03:24:41.275Z,73.23
2018-07-15T03:26:16.858Z,73.10
2018-07-15T03:27:52.443Z,73.26
2018-07-15T03:29:28.016Z,73.31
2018-07-15T03:31:03.927Z,73.12
2018-07-15T03:32:39.659Z,73.00
2018-07-15T03:34:15.316Z,72.61
2018-07-15T03:35:50.874Z,72.80
2018-07-15T03:37:26.464Z,72.65
2018-07-15T03:39:02.023Z,72.50
2018-07-15T03:40:37.627Z,72.21
2018-07-15T03:42:13.210Z,72.01
2018-07-15T03:43:49.283Z,71.42
2018-07-15T03:45:25.031Z,71.62
2018-07-15T03:47:00.778Z,71.31
2018-07-15T03:48:36.937Z,71.17
2018-07-15T03:50:12.588Z,70.71
2018-07-15T03:51:48.215Z,70.42
2018-07-15T03:53:23.887Z,70.45
2018-07-15T03:54:59.471Z,70.12
2018-07-15T03:56:35.075Z,70.22
2018-07-15T03:58:10.947Z,70.15
2018-07-15T03:59:46.741Z,70.24
2018-07-15T04:01:22.371Z,70.49
2018-07-15T04:02:58.060Z,70.27
2018-07-15T04:04:33.831Z,70.24
2018-07-15T04:06:09.452Z,70.18
2018-07-15T04:07:45.193Z,69.98
2018-07-15T04:09:20.767Z,70.33
2018-07-15T04:10:56.315Z,69.94
2018-07-15T04:12:32.099Z,70.18
2018-07-15T04:14:07.690Z,69.94
2018-07-15T04:15:43.299Z,70.12
2018-07-15T04:17:19.039Z,70.18
2018-07-15T04:18:54.692Z,70.16
2018-07-15T04:20:30.319Z,70.47
2018-07-15T04:22:06.016Z,70.65
2018-07-15T04:23:41.640Z,70.48
2018-07-15T04:25:17.277Z,70.87
2018-07-15T04:26:52.846Z,71.36
2018-07-15T04:28:28.472Z,71.29
2018-07-15T04:30:04.146Z,71.13
2018-07-15T04:31:39.713Z,71.64
2018-07-15T04:33:15.350Z,71.31
2018-07-15T04:34:51.106Z,71.10
2018-07-15T04:36:26.717Z,71.06
2018-07-15T04:38:02.441Z,71.16
2018-07-15T04:39:38.066Z,71.05
2018-07-15T04:41:13.632Z,69.86
2018-07-15T04:42:49.629Z,68.07
2018-07-15T04:44:25.218Z,65.19
2018-07-15T04:46:00.887Z,62.64
2018-07-15T04:47:36.482Z,61.32
2018-07-15T04:49:12.083Z,61.97
2018-07-15T04:50:47.710Z,62.79
2018-07-15T04:52:23.375Z,63.49
2018-07-15T04:53:58.974Z,64.11
2018-07-15T04:55:34.569Z,63.94
2018-07-15T04:57:10.194Z,61.97
2018-07-15T04:58:45.799Z,60.09
2018-07-15T05:00:21.370Z,58.08
2018-07-15T05:01:57.024Z,57.94
2018-07-15T05:03:33.019Z,58.13
2018-07-15T05:05:08.615Z,58.20
2018-07-15T05:06:44.626Z,58.30
2018-07-15T05:08:20.408Z,59.04
2018-07-15T05:09:56.062Z,59.66
2018-07-15T05:11:31.618Z,60.03
2018-07-15T05:13:07.243Z,60.60
2018-07-15T05:14:43.004Z,60.45
2018-07-15T05:16:18.579Z,60.47
2018-07-15T05:17:54.143Z,60.08
2018-07-15T05:19:29.757Z,59.78
2018-07-15T05:21:05.310Z,59.47
2018-07-15T05:22:40.967Z,59.15
2018-07-15T05:24:17.251Z,59.60
2018-07-15T05:25:52.892Z,59.12
2018-07-15T05:27:28.490Z,58.89
2018-07-15T05:29:04.096Z,59.13
2018-07-15T05:30:39.687Z,58.99
2018-07-15T05:32:15.470Z,59.16
2018-07-15T05:33:51.460Z,59.69
2018-07-15T05:35:27.137Z,59.83
2018-07-15T05:37:03.177Z,59.72
2018-07-15T05:38:39.005Z,59.48
2018-07-15T05:40:14.767Z,59.92
2018-07-15T05:41:50.911Z,60.00
2018-07-15T05:43:26.951Z,59.82
2018-07-15T05:45:03.736Z,59.87
2018-07-15T05:46:39.461Z,59.65
2018-07-15T05:48:15.347Z,60.74
2018-07-15T05:49:50.962Z,61.19
2018-07-15T05:51:26.550Z,61.47
2018-07-15T05:53:02.224Z,61.61
2018-07-15T05:54:37.901Z,61.59
2018-07-15T05:56:13.645Z,62.15
2018-07-15T05:57:49.485Z,62.57
2018-07-15T05:59:26.205Z,62.25
2018-07-15T06:01:01.811Z,62.39
2018-07-15T06:02:38.139Z,61.84
2018-07-15T06:04:13.717Z,62.32
2018-07-15T06:05:49.584Z,62.32
2018-07-15T06:07:25.186Z,62.28
2018-07-15T06:09:00.806Z,62.54
2018-07-15T06:10:36.413Z,62.01
2018-07-15T06:12:12.111Z,61.70
2018-07-15T06:13:47.655Z,60.86
2018-07-15T06:15:24.333Z,60.17
2018-07-15T06:16:59.919Z,59.65
2018-07-15T06:18:35.887Z,59.63
2018-07-15T06:20:11.489Z,59.33
2018-07-15T06:21:47.384Z,59.61
2018-07-15T06:23:22.997Z,59.31
2018-07-15T06:24:58.559Z,59.40
2018-07-15T06:26:34.238Z,59.53
2018-07-15T06:28:09.836Z,60.03
2018-07-15T06:29:45.459Z,60.30
2018-07-15T06:31:21.047Z,59.85
2018-07-15T06:32:56.598Z,59.92
2018-07-15T06:34:33.256Z,60.25
2018-07-15T06:36:08.806Z,59.75
2018-07-15T06:37:44.505Z,60.22
2018-07-15T06:39:20.076Z,60.35
2018-07-15T06:40:55.630Z,60.35
2018-07-15T06:42:31.232Z,60.48
2018-07-15T06:44:07.253Z,60.29
2018-07-15T06:45:42.863Z,60.68
2018-07-15T06:47:18.657Z,60.03
2018-07-15T06:48:54.225Z,60.22
2018-07-15T06:50:29.796Z,60.07
2018-07-15T06:52:05.502Z,60.14
2018-07-15T06:53:41.371Z,59.63
2018-07-15T06:55:17.116Z,59.09
2018-07-15T06:56:52.886Z,58.56
2018-07-15T06:58:28.595Z,58.15
2018-07-15T07:00:04.381Z,58.41
2018-07-15T07:01:40.006Z,58.13
2018-07-15T07:03:15.852Z,58.39
2018-07-15T07:04:51.550Z,58.89
2018-07-15T07:06:27.347Z,58.33
2018-07-15T07:08:03.492Z,58.84
2018-07-15T07:09:39.079Z,58.94
2018-07-15T07:11:14.627Z,59.10
2018-07-15T07:12:51.363Z,59.02
2018-07-15T07:14:30.252Z,58.54
2018-07-15T07:16:06.133Z,58.66
2018-07-15T07:17:41.728Z,58.63
2018-07-15T07:19:17.475Z,58.41
2018-07-15T07:20:53.054Z,58.76
2018-07-15T07:22:28.993Z,58.57
2018-07-15T07:24:05.876Z,58.18
2018-07-15T07:25:43.970Z,58.12
2018-07-15T07:27:21.049Z,58.37
2018-07-15T07:29:02.729Z,58.30
2018-07-15T07:30:39.895Z,58.34
2018-07-15T07:32:15.688Z,58.16
2018-07-15T07:33:51.682Z,58.05
2018-07-15T07:35:27.326Z,58.09
2018-07-15T07:37:02.869Z,57.96
2018-07-15T07:38:38.899Z,58.13
2018-07-15T07:40:14.631Z,57.52
2018-07-15T07:41:50.479Z,57.70
2018-07-15T07:43:26.113Z,57.31
2018-07-15T07:45:01.716Z,57.29
2018-07-15T07:46:39.508Z,57.26
2018-07-15T07:48:15.088Z,57.64
2018-07-15T07:49:50.718Z,57.12
2018-07-15T07:51:26.260Z,56.95
2018-07-15T07:53:01.828Z,57.03
2018-07-15T07:54:37.679Z,56.99
2018-07-15T07:56:13.359Z,56.82
2018-07-15T07:57:49.036Z,56.76
2018-07-15T07:59:24.797Z,56.76
2018-07-15T08:01:00.502Z,56.34
2018-07-15T08:02:36.311Z,55.84
2018-07-15T08:04:11.967Z,55.95
2018-07-15T08:05:48.071Z,55.94
2018-07-15T08:07:23.990Z,55.96
2018-07-15T08:08:59.735Z,56.12
2018-07-15T08:10:35.570Z,56.02
2018-07-15T08:12:11.419Z,55.83
2018-07-15T08:13:47.073Z,55.43
2018-07-15T08:15:22.763Z,55.78
2018-07-15T08:16:58.631Z,55.47
2018-07-15T08:18:34.458Z,55.70
2018-07-15T08:20:10.263Z,55.05
2018-07-15T08:21:46.065Z,54.58
2018-07-15T08:23:21.681Z,54.36
2018-07-15T08:24:57.282Z,54.21
2018-07-15T08:26:33.026Z,54.24
2018-07-15T08:28:08.671Z,53.61
2018-07-15T08:29:55.616Z,53.69
2018-07-15T08:31:31.239Z,53.21
2018-07-15T08:33:07.094Z,53.78
2018-07-15T08:34:42.990Z,53.20
2018-07-15T08:36:18.879Z,53.46
2018-07-15T08:37:54.791Z,53.44
2018-07-15T08:39:30.399Z,52.73
2018-07-15T08:41:06.100Z,52.41
2018-07-15T08:42:41.838Z,52.67
2018-07-15T08:44:17.574Z,52.82
2018-07-15T08:45:53.280Z,53.03
2018-07-15T08:47:29.203Z,53.01
2018-07-15T08:49:05.931Z,53.37
2018-07-15T08:50:41.798Z,53.27
2018-07-15T08:52:17.841Z,52.83
2018-07-15T08:53:53.478Z,52.51
2018-07-15T08:55:29.653Z,53.00
2018-07-15T08:57:05.686Z,52.21
2018-07-15T08:58:41.680Z,52.41
2018-07-15T09:00:19.098Z,52.69
2018-07-15T09:01:56.126Z,51.96
2018-07-15T09:03:39.478Z,52.23
2018-07-15T09:05:15.428Z,52.15
2018-07-15T09:06:51.267Z,52.32
2018-07-15T09:08:27.413Z,52.13
2018-07-15T09:10:02.989Z,52.27
2018-07-15T09:11:38.643Z,52.31
2018-07-15T09:13:14.500Z,52.71
2018-07-15T09:14:56.704Z,52.49
2018-07-15T09:16:40.924Z,52.02
2018-07-15T09:18:24.829Z,52.66
2018-07-15T09:20:09.499Z,52.13
2018-07-15T09:21:54.083Z,52.55
2018-07-15T09:23:36.840Z,51.78
2018-07-15T09:25:17.662Z,51.67
2018-07-15T09:26:57.362Z,51.43
2018-07-15T09:28:39.804Z,51.03
2018-07-15T09:30:24.409Z,50.84
2018-07-15T09:32:08.110Z,51.29
2018-07-15T09:33:47.212Z,51.02
2018-07-15T09:35:29.203Z,50.53
2018-07-15T09:37:10.894Z,50.36
2018-07-15T09:38:53.782Z,50.39
2018-07-15T09:40:38.131Z,50.28
2018-07-15T09:42:14.889Z,49.90
2018-07-15T09:43:57.489Z,50.08
2018-07-15T09:45:41.713Z,49.33
2018-07-15T09:47:23.218Z,49.50
2018-07-15T09:49:07.350Z,49.56
2018-07-15T09:50:44.800Z,49.14
2018-07-15T09:52:29.185Z,48.79
2018-07-15T09:54:12.059Z,48.82
2018-07-15T09:55:54.599Z,48.35
2018-07-15T09:57:35.436Z,47.81
2018-07-15T09:59:15.806Z,48.13
2018-07-15T10:00:58.968Z,47.12
2018-07-15T10:02:42.324Z,47.63
2018-07-15T10:04:26.119Z,46.96
2018-07-15T10:06:09.155Z,46.90
2018-07-15T10:07:47.829Z,46.87
2018-07-15T10:09:28.231Z,46.77
2018-07-15T10:11:13.328Z,46.93
2018-07-15T10:12:58.128Z,45.97
2018-07-15T10:14:39.172Z,46.78
2018-07-15T10:16:20.918Z,46.59
2018-07-15T10:18:01.878Z,45.66
2018-07-15T10:19:45.321Z,45.88
2018-07-15T10:21:29.503Z,45.93
2018-07-15T10:23:09.002Z,45.50
2018-07-15T10:24:51.320Z,45.55
2018-07-15T10:26:33.951Z,45.89
2018-07-15T10:28:17.334Z,46.19
2018-07-15T10:30:00.850Z,45.71
2018-07-15T10:31:37.256Z,45.21
2018-07-15T10:33:15.680Z,45.35
2018-07-15T10:34:57.530Z,45.42
2018-07-15T10:36:39.413Z,45.29
2018-07-15T10:38:15.775Z,44.68
2018-07-15T10:39:59.512Z,44.55
2018-07-15T10:41:43.353Z,44.66
2018-07-15T10:43:28.667Z,44.79
2018-07-15T10:45:13.661Z,44.87
2018-07-15T10:46:53.037Z,45.15
2018-07-15T10:48:38.156Z,45.65
2018-07-15T10:50:21.658Z,45.32
2018-07-15T10:52:05.625Z,45.18
2018-07-15T10:53:52.531Z,44.77
2018-07-15T10:55:29.427Z,44.46
2018-07-15T10:57:13.062Z,44.07
2018-07-15T10:58:55.656Z,42.82
2018-07-15T11:00:36.727Z,43.31
2018-07-15T11:02:19.762Z,43.77
2018-07-15T11:03:56.489Z,43.85
2018-07-15T11:05:39.320Z,44.32
2018-07-15T11:07:20.260Z,44.31
2018-07-15T11:09:04.452Z,43.84
2018-07-15T11:10:41.712Z,44.18
2018-07-15T11:12:25.372Z,44.25
2018-07-15T11:14:11.260Z,43.87
2018-07-15T11:15:55.973Z,43.67
2018-07-15T11:17:42.842Z,43.34
2018-07-15T11:19:27.082Z,43.19
2018-07-15T11:21:04.649Z,43.00
2018-07-15T11:22:48.239Z,43.13
2018-07-15T11:24:31.856Z,42.95
2018-07-15T11:26:15.460Z,42.81
2018-07-15T11:27:52.263Z,43.03
2018-07-15T11:29:28.206Z,42.16
2018-07-15T11:31:03.884Z,41.92
2018-07-15T11:32:40.035Z,42.72
2018-07-15T11:34:15.640Z,43.56
2018-07-15T11:35:51.467Z,43.13
2018-07-15T11:37:27.440Z,43.36
2018-07-15T11:39:04.894Z,43.02
2018-07-15T11:40:41.196Z,43.47
2018-07-15T11:42:16.835Z,43.67
2018-07-15T11:43:52.583Z,43.12
2018-07-15T11:45:28.533Z,42.66
2018-07-15T11:47:05.141Z,42.63
2018-07-15T11:48:41.172Z,42.92
2018-07-15T11:50:16.848Z,42.97
2018-07-15T11:51:52.736Z,42.99
2018-07-15T11:53:28.504Z,42.02
2018-07-15T11:55:04.123Z,41.58
2018-07-15T11:56:39.833Z,42.00
2018-07-15T11:58:15.598Z,41.77
2018-07-15T11:59:51.759Z,41.51
2018-07-15T12:01:27.436Z,41.25
2018-07-15T12:03:03.031Z,41.32
2018-07-15T12:04:38.899Z,41.02
2018-07-15T12:06:14.855Z,40.61
2018-07-15T12:07:55.992Z,40.60
2018-07-15T12:09:33.748Z,40.64
2018-07-15T12:11:10.232Z,40.58
2018-07-15T12:12:45.924Z,40.65
2018-07-15T12:16:40.657Z,40.53
2018-07-15T12:18:16.595Z,39.59
2018-07-15T12:19:54.670Z,39.72
2018-07-15T12:21:31.278Z,40.37
